Time;durP1;ratioP1;P1;durP2;ratioP2;P2;SDS_P1;SDS_P2;PMS_P1;PMS_P2;Temp;Humidity;BMP_temperature;BMP_pressure;BME280_temperature;BME280_humidity;BME280_pressure;Samples;Min_cycle;Max_cycle;Signal;HPM_P1;HPM_P2
2022/05/02 00:00:03;;;;;;;447.73;264.40;;;;;;;13.95;46.28;101681.78;682509;28;44418;-70
2022/05/02 00:00:26;;;;;;;445.45;256.23;;;;;;;13.94;46.59;101677.34;680079;28;92077;-70
2022/05/02 00:00:47;;;;;;;446.08;256.85;;;;;;;13.96;46.79;101688.03;682741;28;37649;-70
2022/05/02 00:01:08;;;;;;;444.15;252.13;;;;;;;13.96;46.74;101688.03;683370;28;23430;-70
2022/05/02 00:01:29;;;;;;;444.55;253.75;;;;;;;13.95;46.70;101678.19;678935;28;22401;-70
2022/05/02 00:01:51;;;;;;;445.55;255.23;;;;;;;13.97;46.50;101676.16;680086;29;21120;-70
2022/05/02 00:02:13;;;;;;;445.05;256.00;;;;;;;13.96;46.52;101675.31;678711;29;46249;-70
2022/05/02 00:02:34;;;;;;;445.95;254.98;;;;;;;13.94;46.69;101673.81;679921;29;46305;-70
2022/05/02 00:02:55;;;;;;;444.35;251.50;;;;;;;13.96;46.40;101672.59;680430;29;21284;-70
2022/05/02 00:03:18;;;;;;;444.95;254.93;;;;;;;13.97;46.62;101682.44;680980;28;1560;-70
2022/05/02 00:03:39;;;;;;;444.33;254.60;;;;;;;13.98;46.74;101677.84;682109;28;35676;-70
2022/05/02 00:04:00;;;;;;;444.75;260.95;;;;;;;13.98;46.43;101680.56;683321;28;23716;-70
2022/05/02 00:04:22;;;;;;;444.65;260.15;;;;;;;13.97;46.42;101681.59;683576;28;1471;-70
2022/05/02 00:04:43;;;;;;;445.08;259.58;;;;;;;13.99;46.34;101679.53;682702;28;21490;-69
2022/05/02 00:05:07;;;;;;;446.90;265.38;;;;;;;13.98;46.72;101678.72;682477;28;46469;-70
2022/05/02 00:05:28;;;;;;;444.65;249.75;;;;;;;13.98;46.23;101681.44;680928;28;69401;-70
2022/05/02 00:05:49;;;;;;;444.63;253.45;;;;;;;13.82;46.51;101659.75;683124;28;21514;-70
2022/05/02 00:06:11;;;;;;;445.15;257.25;;;;;;;13.98;46.20;101680.56;683154;28;22409;-70
2022/05/02 00:06:32;;;;;;;444.65;257.38;;;;;;;13.97;46.41;101674.28;681581;28;45267;-70
2022/05/02 00:06:53;;;;;;;442.95;251.48;;;;;;;13.97;46.76;101679.72;683095;28;22395;-70
2022/05/02 00:07:16;;;;;;;444.80;257.65;;;;;;;13.97;46.30;101678.88;683012;28;21799;-70
2022/05/02 00:07:37;;;;;;;443.80;256.38;;;;;;;13.96;46.42;101675.31;681574;28;69221;-70
2022/05/02 00:07:59;;;;;;;443.48;250.52;;;;;;;13.96;46.37;101675.31;682331;28;46345;-70
2022/05/02 00:08:20;;;;;;;444.45;247.82;;;;;;;13.95;46.37;101673.63;682515;28;46299;-70
2022/05/02 00:08:42;;;;;;;445.25;256.35;;;;;;;13.93;46.79;101669.38;682673;28;22169;-70
2022/05/02 00:09:03;;;;;;;445.67;262.15;;;;;;;13.92;46.46;101673.13;683123;28;22447;-69
2022/05/02 00:09:25;;;;;;;443.92;255.88;;;;;;;13.86;46.62;101664.66;683328;28;24350;-70
2022/05/02 00:09:46;;;;;;;446.42;256.92;;;;;;;13.96;46.85;101680.72;681642;28;46258;-69
2022/05/02 00:10:08;;;;;;;443.23;250.82;;;;;;;13.93;46.43;101672.94;682311;28;46335;-70
2022/05/02 00:10:30;;;;;;;444.75;253.15;;;;;;;13.94;46.78;101671.09;683012;28;23217;-70
2022/05/02 00:10:51;;;;;;;446.15;253.75;;;;;;;13.88;46.62;101668.03;681141;28;67617;-70
2022/05/02 00:11:13;;;;;;;446.35;258.27;;;;;;;13.91;46.61;101668.72;682700;28;22309;-70
2022/05/02 00:11:35;;;;;;;444.55;255.80;;;;;;;13.92;46.81;101678.53;681606;28;44353;-70
2022/05/02 00:11:56;;;;;;;443.23;249.13;;;;;;;13.91;46.88;101675.00;683090;28;21533;-70
2022/05/02 00:12:18;;;;;;;443.52;251.30;;;;;;;13.92;46.46;101675.81;682977;28;23891;-70
2022/05/02 00:12:39;;;;;;;444.65;248.18;;;;;;;13.91;46.49;101672.28;682254;28;46293;-70
2022/05/02 00:13:00;;;;;;;445.60;249.18;;;;;;;13.92;46.53;101679.41;681947;28;46305;-70
2022/05/02 00:13:22;;;;;;;448.17;260.95;;;;;;;13.92;46.71;101671.28;682827;28;20238;-70
2022/05/02 00:13:44;;;;;;;445.60;260.63;;;;;;;13.93;46.79;101672.09;681904;28;46085;-70
2022/05/02 00:14:05;;;;;;;445.75;262.25;;;;;;;13.92;46.49;101673.97;683240;28;22550;-70
2022/05/02 00:14:26;;;;;;;443.77;251.38;;;;;;;13.93;46.40;101680.25;682352;28;22400;-70
2022/05/02 00:14:48;;;;;;;442.88;247.13;;;;;;;13.92;46.38;101668.56;683111;28;22361;-70
2022/05/02 00:15:10;;;;;;;445.70;257.35;;;;;;;13.91;46.49;101668.72;681469;28;46313;-70
2022/05/02 00:15:32;;;;;;;443.67;250.10;;;;;;;13.93;46.38;101675.66;681233;28;69191;-70
2022/05/02 00:15:54;;;;;;;444.58;255.45;;;;;;;13.91;46.38;101666.00;682446;28;44372;-70
2022/05/02 00:16:15;;;;;;;445.40;259.45;;;;;;;13.94;46.38;101676.53;682317;28;46325;-70
2022/05/02 00:16:36;;;;;;;445.70;263.42;;;;;;;13.93;46.52;101672.94;682648;28;22469;-70
2022/05/02 00:16:57;;;;;;;445.25;261.75;;;;;;;13.90;46.56;101669.75;682678;28;23407;-70
2022/05/02 00:17:18;;;;;;;444.90;254.93;;;;;;;13.92;46.80;101678.53;683157;28;23271;-70
2022/05/02 00:17:59;;;;;;;442.13;246.55;;;;;;;13.93;46.54;101674.81;682972;28;22393;-70
2022/05/02 00:18:20;;;;;;;445.85;262.42;;;;;;;13.92;46.77;101663.13;679399;28;135818;-70
2022/05/02 00:18:42;;;;;;;443.92;253.32;;;;;;;13.92;46.52;101670.41;682729;28;21327;-70
2022/05/02 00:19:04;;;;;;;442.88;248.93;;;;;;;13.91;46.64;101672.28;682867;28;22302;-70
2022/05/02 00:19:25;;;;;;;443.65;251.20;;;;;;;13.92;46.49;101665.84;682330;28;38583;-70
2022/05/02 00:19:46;;;;;;;448.45;266.83;;;;;;;13.92;46.51;101667.69;682425;28;23662;-70
2022/05/02 00:20:08;;;;;;;445.75;254.13;;;;;;;13.91;46.69;101668.72;683381;28;22378;-70
2022/05/02 00:20:31;;;;;;;443.60;250.38;;;;;;;13.90;46.60;101665.16;682063;28;45267;-70
2022/05/02 00:20:53;;;;;;;443.48;251.48;;;;;;;13.89;46.53;101663.47;680814;28;92122;-70
2022/05/02 00:21:14;;;;;;;443.13;246.80;;;;;;;13.90;46.74;101664.31;683156;28;22223;-70
2022/05/02 00:21:35;;;;;;;443.30;248.93;;;;;;;13.90;46.92;101661.59;682164;28;21485;-70
2022/05/02 00:21:57;;;;;;;443.48;251.77;;;;;;;13.88;46.57;101659.88;682510;28;23420;-70
2022/05/02 00:22:19;;;;;;;443.50;248.68;;;;;;;13.87;46.81;101657.34;682475;28;45367;-70
2022/05/02 00:22:40;;;;;;;443.08;249.02;;;;;;;13.85;46.84;101648.53;682175;28;45245;-70
2022/05/02 00:23:03;;;;;;;445.05;254.50;;;;;;;13.87;46.48;101662.78;682674;28;22423;-70
2022/05/02 00:23:26;;;;;;;446.17;257.70;;;;;;;13.80;46.69;101649.06;682207;28;44382;-70
2022/05/02 00:23:47;;;;;;;444.92;255.18;;;;;;;13.86;46.85;101661.94;680634;28;69367;-70
2022/05/02 00:24:09;;;;;;;442.65;250.05;;;;;;;13.84;47.06;101665.84;680027;29;21484;-70
2022/05/02 00:24:30;;;;;;;444.40;252.85;;;;;;;13.85;46.60;101654.81;679578;29;46377;-70
2022/05/02 00:24:51;;;;;;;444.15;250.32;;;;;;;13.81;46.65;101647.22;680556;29;22390;-70
2022/05/02 00:25:14;;;;;;;443.77;248.23;;;;;;;13.80;46.88;101646.34;680384;29;22459;-70
2022/05/02 00:25:35;;;;;;;445.65;259.35;;;;;;;13.81;46.61;101649.94;678493;29;69339;-70
2022/05/02 00:25:56;;;;;;;446.85;263.42;;;;;;;13.83;46.72;101650.59;681086;28;21527;-70
2022/05/02 00:26:17;;;;;;;444.75;257.75;;;;;;;13.77;46.73;101646.69;683948;28;1744;-70
2022/05/02 00:26:41;;;;;;;444.38;250.35;;;;;;;13.86;46.88;101658.38;657489;28;42391;-70
2022/05/02 00:27:03;;;;;;;446.40;264.02;;;;;;;13.84;46.65;101652.28;675482;29;69642;-70
2022/05/02 00:27:24;;;;;;;444.33;258.27;;;;;;;13.80;46.98;101649.06;676385;29;46311;-70
2022/05/02 00:27:46;;;;;;;443.25;248.52;;;;;;;13.83;46.96;101647.88;674937;29;24026;-70
2022/05/02 00:28:12;;;;;;;444.40;256.15;;;;;;;13.78;46.40;101650.28;674052;29;44421;-70
2022/05/02 00:28:33;;;;;;;443.88;248.15;;;;;;;13.81;47.03;101652.66;671832;29;138196;-70
2022/05/02 00:28:54;;;;;;;442.23;249.13;;;;;;;13.75;47.13;101646.03;676870;29;45232;-70
2022/05/02 00:29:15;;;;;;;441.48;244.90;;;;;;;13.79;46.73;101651.97;679512;28;22369;-70
2022/05/02 00:29:37;;;;;;;446.25;255.98;;;;;;;13.79;47.18;101650.13;679929;29;22418;-70
2022/05/02 00:29:59;;;;;;;447.80;260.55;;;;;;;13.80;46.85;101648.22;679836;28;46302;-70
2022/05/02 00:30:21;;;;;;;446.20;261.67;;;;;;;13.78;46.84;101653.84;678974;29;46408;-70
2022/05/02 00:30:42;;;;;;;443.75;254.88;;;;;;;13.72;47.11;101643.69;680324;29;22405;-70
2022/05/02 00:31:04;;;;;;;445.48;258.33;;;;;;;13.76;46.75;101647.75;679112;29;46177;-70
2022/05/02 00:31:26;;;;;;;445.38;256.95;;;;;;;13.70;46.68;101641.13;678652;28;46308;-70
2022/05/02 00:31:47;;;;;;;444.27;254.60;;;;;;;13.74;46.96;101651.66;680331;29;22372;-70
2022/05/02 00:32:09;;;;;;;443.70;252.55;;;;;;;13.73;46.91;101652.66;680088;28;21372;-71
2022/05/02 00:32:30;;;;;;;444.20;251.15;;;;;;;13.74;46.95;101651.66;681480;28;69250;-70
2022/05/02 00:32:53;;;;;;;446.40;259.50;;;;;;;13.73;47.21;101656.25;683151;28;22461;-70
2022/05/02 00:33:14;;;;;;;448.20;262.92;;;;;;;13.72;47.20;101648.28;681065;28;46296;-69
2022/05/02 00:33:36;;;;;;;447.63;264.10;;;;;;;13.72;46.92;101649.13;682020;28;46316;-70
2022/05/02 00:33:57;;;;;;;446.10;255.75;;;;;;;13.70;47.26;101652.00;679555;29;22403;-70
2022/05/02 00:34:18;;;;;;;446.08;259.98;;;;;;;13.69;47.03;101647.59;680073;29;23507;-70
2022/05/02 00:34:40;;;;;;;447.77;264.30;;;;;;;13.70;47.35;101649.28;679381;29;45322;-70
2022/05/02 00:35:01;;;;;;;451.45;273.92;;;;;;;13.69;47.17;101646.75;678876;28;44385;-70
2022/05/02 00:35:22;;;;;;;448.63;260.63;;;;;;;13.69;47.09;101641.31;679825;29;21529;-70
2022/05/02 00:35:44;;;;;;;446.05;253.80;;;;;;;13.66;47.38;101642.50;680270;28;23402;-70
2022/05/02 00:36:05;;;;;;;448.67;261.95;;;;;;;13.68;47.14;101651.34;680211;28;45301;-70
2022/05/02 00:36:26;;;;;;;453.08;272.23;;;;;;;13.69;47.08;101652.19;682013;28;23230;-70
2022/05/02 00:36:47;;;;;;;457.85;288.48;;;;;;;13.68;47.11;101647.75;682839;28;22190;-70
2022/05/02 00:37:09;;;;;;;445.83;255.38;;;;;;;13.68;47.12;101645.91;679813;29;21516;-70
2022/05/02 00:37:32;;;;;;;445.63;255.30;;;;;;;13.68;47.13;101647.75;678534;29;47090;-70
2022/05/02 00:37:53;;;;;;;447.02;261.35;;;;;;;13.68;47.38;101648.63;678728;29;69218;-70
2022/05/02 00:38:14;;;;;;;446.95;260.90;;;;;;;13.68;47.19;101650.47;680278;29;22413;-70
2022/05/02 00:38:36;;;;;;;444.27;251.98;;;;;;;13.65;47.22;101640.84;677582;29;23354;-70
2022/05/02 00:38:57;;;;;;;444.55;252.95;;;;;;;13.68;47.19;101650.47;676820;29;46083;-70
2022/05/02 00:39:18;;;;;;;443.45;252.30;;;;;;;13.66;47.08;101645.22;677005;29;22369;-70
2022/05/02 00:39:39;;;;;;;444.77;250.55;;;;;;;13.68;47.11;101642.31;677295;29;17451;-69
2022/05/02 00:40:01;;;;;;;444.33;247.13;;;;;;;13.68;47.08;101651.34;677468;29;21433;-70
2022/05/02 00:40:23;;;;;;;445.63;255.00;;;;;;;13.65;47.15;101638.13;676766;29;44254;-70
2022/05/02 00:40:44;;;;;;;444.70;248.98;;;;;;;13.67;47.49;101646.09;679859;28;45277;-70
2022/05/02 00:41:05;;;;;;;445.27;250.88;;;;;;;13.66;47.29;101653.34;682634;28;23509;-70
2022/05/02 00:41:28;;;;;;;445.95;255.35;;;;;;;13.66;47.22;101647.94;682031;28;22136;-70
2022/05/02 00:41:49;;;;;;;447.10;256.40;;;;;;;13.66;47.53;101639.78;681282;28;65511;-70
2022/05/02 00:42:10;;;;;;;447.35;259.98;;;;;;;13.64;47.48;101643.72;682684;28;23452;-70
2022/05/02 00:42:31;;;;;;;446.17;254.45;;;;;;;13.67;47.13;101651.50;682585;28;23462;-70
2022/05/02 00:42:52;;;;;;;446.65;255.85;;;;;;;13.66;47.23;101650.66;682561;28;21549;-69
2022/05/02 00:43:14;;;;;;;450.25;262.85;;;;;;;13.66;47.24;101641.66;681337;28;46089;-70
2022/05/02 00:43:35;;;;;;;448.10;256.50;;;;;;;13.65;47.53;101642.69;682037;28;47425;-70
2022/05/02 00:43:56;;;;;;;446.75;252.95;;;;;;;13.61;47.19;101635.94;682903;28;22385;-70
2022/05/02 00:44:18;;;;;;;448.33;258.63;;;;;;;13.67;47.53;101640.66;682143;28;22278;-71
2022/05/02 00:44:40;;;;;;;446.52;251.07;;;;;;;13.67;47.39;101638.78;682971;28;21527;-70
2022/05/02 00:45:05;;;;;;;448.02;258.92;;;;;;;13.68;47.07;101645.91;681114;28;69208;-70
2022/05/02 00:45:26;;;;;;;447.65;258.63;;;;;;;13.65;47.08;101639.97;680044;28;114595;-70
2022/05/02 00:45:47;;;;;;;446.95;257.75;;;;;;;13.67;46.90;101643.38;682701;28;22387;-70
2022/05/02 00:46:16;;;;;;;447.55;261.50;;;;;;;13.67;47.52;101646.91;683005;28;21502;-70
2022/05/02 00:46:38;;;;;;;446.27;259.42;;;;;;;13.67;47.47;101640.66;678459;28;137866;-70
2022/05/02 00:46:59;;;;;;;446.23;254.02;;;;;;;13.67;47.04;101648.81;682396;28;46258;-70
2022/05/02 00:47:21;;;;;;;446.02;253.40;;;;;;;13.68;47.07;101645.91;683461;28;14664;-70
2022/05/02 00:47:49;;;;;;;447.23;264.90;;;;;;;13.67;46.88;101644.22;682406;28;22274;-70
2022/05/02 00:48:11;;;;;;;445.70;253.70;;;;;;;13.67;47.00;101643.38;675455;29;137862;-70
2022/05/02 00:48:42;;;;;;;446.65;258.98;;;;;;;13.70;47.34;101651.16;677788;29;96913;-70
2022/05/02 00:49:03;;;;;;;445.50;255.82;;;;;;;13.69;46.92;101649.47;680322;29;22499;-70
2022/05/02 00:49:24;;;;;;;445.02;253.18;;;;;;;13.64;46.93;101641.00;680171;29;20137;-70
2022/05/02 00:49:45;;;;;;;447.30;256.88;;;;;;;13.67;47.26;101649.63;679550;29;21567;-70
2022/05/02 00:50:09;;;;;;;444.55;252.73;;;;;;;13.68;47.35;101650.47;682178;28;20862;-70
2022/05/02 00:50:33;;;;;;;446.33;262.40;;;;;;;13.68;47.38;101642.31;679849;28;115449;-70
2022/05/02 00:50:55;;;;;;;445.00;251.63;;;;;;;13.67;47.31;101646.09;680640;28;70279;-70
2022/05/02 00:51:16;;;;;;;444.27;247.32;;;;;;;13.67;47.03;101649.63;682111;28;44356;-70
2022/05/02 00:51:40;;;;;;;447.33;260.30;;;;;;;13.66;47.04;101647.94;680169;28;88122;-70
2022/05/02 00:52:01;;;;;;;445.13;255.15;;;;;;;13.64;47.07;101644.56;681693;28;43010;-70
2022/05/02 00:52:22;;;;;;;445.80;251.02;;;;;;;13.67;47.47;101651.50;682051;28;22362;-70
2022/05/02 00:52:45;;;;;;;446.10;253.13;;;;;;;13.66;47.27;101647.94;682368;28;22491;-70
2022/05/02 00:53:09;;;;;;;448.27;254.13;;;;;;;13.66;47.34;101647.94;680512;28;69323;-70
2022/05/02 00:53:30;;;;;;;447.00;252.93;;;;;;;13.66;47.35;101647.94;680717;28;92301;-70
2022/05/02 00:53:51;;;;;;;446.13;256.05;;;;;;;13.66;47.08;101644.38;683784;28;1548;-69
2022/05/02 00:54:12;;;;;;;445.10;254.48;;;;;;;13.66;47.08;101647.09;682777;28;21517;-70
2022/05/02 00:54:35;;;;;;;444.90;252.95;;;;;;;13.65;47.43;101637.25;683191;28;22427;-70
2022/05/02 00:54:57;;;;;;;444.48;252.00;;;;;;;13.65;47.20;101640.84;681389;28;65666;-70
2022/05/02 00:55:18;;;;;;;447.38;256.60;;;;;;;13.67;47.44;101646.91;681331;28;47200;-70
2022/05/02 00:55:40;;;;;;;446.60;251.90;;;;;;;13.66;47.34;101641.66;682149;28;45201;-70
2022/05/02 00:56:02;;;;;;;444.17;245.90;;;;;;;13.67;47.03;101644.22;682528;28;21515;-70
2022/05/02 00:56:23;;;;;;;447.23;255.98;;;;;;;13.67;47.32;101643.38;680272;28;69338;-70
2022/05/02 00:56:45;;;;;;;446.52;257.48;;;;;;;13.65;47.25;101648.97;682065;28;20777;-70
2022/05/02 00:57:06;;;;;;;444.23;251.70;;;;;;;13.63;47.14;101640.13;683019;28;22422;-70
2022/05/02 00:57:28;;;;;;;445.30;253.05;;;;;;;13.63;47.07;101645.56;679699;28;24556;-70
2022/05/02 00:57:50;;;;;;;447.63;260.92;;;;;;;13.65;47.22;101650.81;679315;29;45008;-70
2022/05/02 00:58:13;;;;;;;445.25;256.63;;;;;;;13.64;47.62;101643.72;679789;28;23730;-70
2022/05/02 00:58:36;;;;;;;447.23;259.10;;;;;;;13.63;47.54;101647.44;677448;29;92010;-69
2022/05/02 00:58:57;;;;;;;447.50;255.85;;;;;;;13.64;47.49;101647.28;674237;29;46388;-70
2022/05/02 00:59:20;;;;;;;446.27;257.30;;;;;;;13.61;47.60;101642.19;675192;29;45301;-70
2022/05/02 00:59:41;;;;;;;446.30;259.13;;;;;;;13.56;47.50;101633.72;676084;29;44347;-69
2022/05/02 01:00:04;;;;;;;445.02;255.77;;;;;;;13.62;47.61;101643.03;676647;29;46333;-70
2022/05/02 01:00:27;;;;;;;445.58;250.90;;;;;;;13.62;47.27;101646.59;678196;29;13477;-70
2022/05/02 01:00:48;;;;;;;446.77;261.30;;;;;;;13.63;47.60;101647.44;678787;28;37773;-70
2022/05/02 01:01:09;;;;;;;447.25;260.13;;;;;;;13.62;47.77;101641.19;682901;28;22505;-70
2022/05/02 01:01:32;;;;;;;449.20;265.45;;;;;;;13.58;47.69;101639.81;681799;28;22372;-70
2022/05/02 01:01:53;;;;;;;447.05;258.70;;;;;;;13.60;47.60;101642.38;681762;28;45326;-70
2022/05/02 01:02:15;;;;;;;444.55;253.88;;;;;;;13.60;47.71;101642.38;682993;28;10524;-70
2022/05/02 01:02:36;;;;;;;445.52;255.02;;;;;;;13.54;47.65;101630.31;680663;28;70199;-70
2022/05/02 01:02:58;;;;;;;448.17;263.85;;;;;;;13.61;47.80;101653.03;682376;28;11325;-70
2022/05/02 01:03:20;;;;;;;451.92;269.48;;;;;;;13.57;47.72;101638.13;680384;28;43709;-71
2022/05/02 01:03:42;;;;;;;448.67;267.80;;;;;;;13.62;47.42;101648.44;680905;28;45221;-70
2022/05/02 01:04:03;;;;;;;445.38;257.58;;;;;;;13.60;47.75;101643.19;682778;28;22716;-70
2022/05/02 01:04:26;;;;;;;447.23;259.55;;;;;;;13.61;47.37;101644.06;681642;28;47106;-70
2022/05/02 01:04:47;;;;;;;445.38;259.65;;;;;;;13.57;47.63;101637.28;681581;28;45074;-70
2022/05/02 01:05:08;;;;;;;444.98;255.43;;;;;;;13.59;47.59;101644.25;680845;28;46292;-70
2022/05/02 01:05:29;;;;;;;447.63;262.02;;;;;;;13.57;47.38;101640.84;682572;28;22406;-70
2022/05/02 01:07:19;;;;;;;448.08;262.65;;;;;;;13.57;47.60;101642.72;670636;29;135982;-70
2022/05/02 01:07:41;;;;;;;447.38;259.45;;;;;;;13.58;47.35;101641.69;674946;28;115124;-70
2022/05/02 01:08:05;;;;;;;446.58;254.80;;;;;;;13.55;47.57;101644.75;681742;28;44353;-70
2022/05/02 01:08:28;;;;;;;447.83;260.80;;;;;;;13.51;47.44;101631.53;679273;28;90727;-70
2022/05/02 01:08:52;;;;;;;446.73;255.05;;;;;;;13.52;47.64;101637.81;679881;28;69443;-70
2022/05/02 01:09:13;;;;;;;448.33;264.83;;;;;;;13.56;47.37;101641.00;680784;28;92138;-70
2022/05/02 01:09:37;;;;;;;449.92;264.15;;;;;;;13.55;47.34;101645.59;682197;28;22428;-70
2022/05/02 01:09:59;;;;;;;446.50;252.13;;;;;;;13.57;47.44;101640.84;680206;28;90376;-70
2022/05/02 01:10:20;;;;;;;444.98;254.07;;;;;;;13.58;47.43;101636.28;681444;28;46383;-70
2022/05/02 01:10:41;;;;;;;444.67;256.55;;;;;;;13.58;47.48;101633.56;682602;28;23409;-70
2022/05/02 01:11:03;;;;;;;443.15;250.93;;;;;;;13.59;47.34;101637.94;682966;28;21505;-70
2022/05/02 01:11:24;;;;;;;443.67;250.60;;;;;;;13.51;47.29;101626.13;681412;28;45271;-70
2022/05/02 01:11:46;;;;;;;442.73;248.13;;;;;;;13.58;47.70;101628.13;682920;28;23486;-70
2022/05/02 01:12:10;;;;;;;446.02;258.25;;;;;;;13.59;47.40;101633.38;682243;28;45229;-70
2022/05/02 01:12:32;;;;;;;445.15;251.38;;;;;;;13.61;47.45;101631.34;679842;28;115351;-70
2022/05/02 01:12:54;;;;;;;445.13;250.73;;;;;;;13.61;47.45;101638.63;682446;28;21694;-70
2022/05/02 01:13:31;;;;;;;447.05;254.68;;;;;;;13.62;47.28;101635.75;681805;28;44963;-70
2022/05/02 01:13:52;;;;;;;446.65;259.77;;;;;;;13.62;47.26;101627.59;678578;28;137662;-70
2022/05/02 01:14:14;;;;;;;447.20;261.15;;;;;;;13.60;47.30;101635.06;683021;28;22390;-70
2022/05/02 01:14:35;;;;;;;446.15;256.42;;;;;;;13.62;47.38;101632.16;682061;28;45234;-70
2022/05/02 01:14:57;;;;;;;447.70;262.05;;;;;;;13.64;47.65;101639.13;681643;28;45239;-70
2022/05/02 01:15:19;;;;;;;447.25;260.92;;;;;;;13.66;47.46;101628.09;682109;28;21526;-70
2022/05/02 01:15:40;;;;;;;444.58;248.52;;;;;;;13.65;47.57;101638.13;681872;28;44377;-70
2022/05/02 01:16:07;;;;;;;444.83;252.35;;;;;;;13.63;47.18;101631.16;683081;28;22394;-70
2022/05/02 01:16:29;;;;;;;444.02;251.40;;;;;;;13.65;47.42;101629.97;678130;28;136350;-70
2022/05/02 01:16:51;;;;;;;444.58;251.75;;;;;;;13.65;47.15;101637.25;682244;28;46391;-70
2022/05/02 01:17:12;;;;;;;444.98;248.77;;;;;;;13.64;47.06;101635.56;681422;28;46318;-70
2022/05/02 01:17:33;;;;;;;446.15;252.25;;;;;;;13.67;47.36;101632.50;682750;28;22185;-70
2022/05/02 01:17:54;;;;;;;444.30;249.98;;;;;;;13.64;47.33;101628.28;682893;28;23417;-70
2022/05/02 01:18:16;;;;;;;445.35;257.08;;;;;;;13.66;47.23;101634.34;683117;28;23488;-70
2022/05/02 01:18:37;;;;;;;445.23;254.05;;;;;;;13.65;47.15;101635.41;681535;28;46351;-70
2022/05/02 01:18:59;;;;;;;445.05;254.68;;;;;;;13.67;47.30;101637.94;682053;28;45219;-70
2022/05/02 01:19:20;;;;;;;445.58;253.15;;;;;;;13.65;47.51;101643.53;681976;28;44428;-69
2022/05/02 01:19:42;;;;;;;449.63;263.85;;;;;;;13.65;47.08;101646.25;682204;28;22396;-69
2022/05/02 01:20:07;;;;;;;443.70;247.10;;;;;;;13.64;47.14;101641.84;681649;28;46332;-69
2022/05/02 01:20:28;;;;;;;445.88;257.95;;;;;;;13.66;47.15;101638.94;679678;28;109815;-69
2022/05/02 01:20:49;;;;;;;443.40;252.82;;;;;;;13.63;47.23;101647.44;682728;28;23413;-69
2022/05/02 01:21:14;;;;;;;444.75;256.48;;;;;;;13.64;47.39;101641.00;683188;28;23490;-70
2022/05/02 01:21:37;;;;;;;445.35;251.65;;;;;;;13.65;47.01;101642.69;678593;28;115026;-70
2022/05/02 01:21:58;;;;;;;446.58;259.92;;;;;;;13.62;46.92;101635.75;680334;28;69326;-70
2022/05/02 01:22:19;;;;;;;445.75;256.20;;;;;;;13.63;47.36;101640.13;682814;28;21531;-69
2022/05/02 01:22:41;;;;;;;447.08;260.15;;;;;;;13.61;47.35;101636.75;682920;28;22389;-69
2022/05/02 01:23:04;;;;;;;446.90;261.70;;;;;;;13.60;47.25;101629.63;681773;28;46259;-69
2022/05/02 01:23:25;;;;;;;445.65;259.58;;;;;;;13.61;47.21;101636.75;678171;29;70156;-69
2022/05/02 01:23:49;;;;;;;446.20;260.52;;;;;;;13.60;47.08;101635.06;679476;29;21294;-69
2022/05/02 01:24:11;;;;;;;445.45;257.10;;;;;;;13.63;47.29;101642.84;677423;29;92190;-69
2022/05/02 01:24:37;;;;;;;446.08;259.35;;;;;;;13.63;47.16;101642.00;678908;28;44356;-69
2022/05/02 01:24:58;;;;;;;445.63;253.50;;;;;;;13.60;47.02;101624.19;676037;29;138713;-69
2022/05/02 01:25:19;;;;;;;444.15;250.60;;;;;;;13.63;47.01;101633.88;681605;28;23475;-69
2022/05/02 01:25:40;;;;;;;444.95;254.38;;;;;;;13.64;47.05;101638.28;682768;28;24251;-69
2022/05/02 01:26:02;;;;;;;444.52;253.90;;;;;;;13.64;46.99;101635.56;682745;28;22464;-69
2022/05/02 01:26:24;;;;;;;446.90;260.85;;;;;;;13.64;47.21;101633.69;681947;28;23543;-70
2022/05/02 01:26:45;;;;;;;447.02;264.02;;;;;;;13.64;46.93;101633.69;681918;28;44486;-69
2022/05/02 01:27:07;;;;;;;446.25;263.58;;;;;;;13.66;47.20;101631.66;681379;28;22275;-69
2022/05/02 01:27:28;;;;;;;444.58;253.90;;;;;;;13.64;47.29;101625.56;682007;28;46340;-69
2022/05/02 01:27:50;;;;;;;444.55;252.43;;;;;;;13.61;47.16;101619.63;682733;28;22392;-69
2022/05/02 01:28:11;;;;;;;447.02;258.38;;;;;;;13.66;47.07;101634.34;681420;28;45328;-69
2022/05/02 01:28:40;;;;;;;447.40;254.75;;;;;;;13.65;47.21;101632.69;681345;28;44368;-70
2022/05/02 01:29:01;;;;;;;445.63;252.70;;;;;;;13.66;46.78;101631.66;672892;29;137936;-69
2022/05/02 01:29:23;;;;;;;445.65;252.25;;;;;;;13.65;46.85;101629.97;676731;29;45259;-69
2022/05/02 01:29:46;;;;;;;446.52;253.88;;;;;;;13.67;47.04;101635.22;677174;29;23476;-69
2022/05/02 01:30:09;;;;;;;443.77;249.77;;;;;;;13.64;46.90;101622.00;675328;29;92384;-69
2022/05/02 01:30:31;;;;;;;443.50;253.20;;;;;;;13.66;47.17;101637.06;678015;29;1599;-70
2022/05/02 01:30:52;;;;;;;443.90;253.13;;;;;;;13.66;46.82;101630.81;679092;28;22205;-69
2022/05/02 01:31:15;;;;;;;443.80;252.68;;;;;;;13.66;47.02;101631.66;682961;28;21556;-70
2022/05/02 01:31:36;;;;;;;445.98;256.30;;;;;;;13.64;47.22;101630.97;679217;28;92108;-69
2022/05/02 01:31:57;;;;;;;445.52;253.15;;;;;;;13.66;47.38;101631.66;682876;28;23488;-69
2022/05/02 01:32:20;;;;;;;445.80;255.27;;;;;;;13.66;47.08;101631.66;682258;28;22255;-69
2022/05/02 01:32:41;;;;;;;445.80;253.85;;;;;;;13.64;47.29;101630.97;682298;28;46331;-69
2022/05/02 01:33:02;;;;;;;448.38;260.88;;;;;;;13.66;47.23;101638.94;682084;28;22110;-69
2022/05/02 01:33:23;;;;;;;447.08;255.07;;;;;;;13.63;47.39;101628.44;682642;28;22394;-69
2022/05/02 01:33:46;;;;;;;445.17;251.02;;;;;;;13.64;47.30;101630.97;682683;28;25492;-70
2022/05/02 01:34:07;;;;;;;444.13;249.88;;;;;;;13.63;47.47;101631.16;681889;28;45284;-69
2022/05/02 01:34:28;;;;;;;445.45;252.20;;;;;;;13.61;47.60;101628.63;679433;29;22269;-69
2022/05/02 01:34:49;;;;;;;445.80;254.85;;;;;;;13.63;47.39;101632.00;680023;29;21521;-69
2022/05/02 01:35:12;;;;;;;444.90;251.60;;;;;;;13.62;47.64;101630.31;679823;29;22290;-69
2022/05/02 01:35:33;;;;;;;445.00;249.70;;;;;;;13.61;47.66;101634.03;677486;29;92035;-69
2022/05/02 01:35:54;;;;;;;442.40;246.85;;;;;;;13.60;47.40;101626.91;680610;29;23446;-69
2022/05/02 01:36:17;;;;;;;443.90;248.32;;;;;;;13.59;47.54;101627.09;680632;28;23450;-69
2022/05/02 01:36:39;;;;;;;445.90;252.93;;;;;;;13.59;47.72;101630.66;681403;28;67440;-70
2022/05/02 01:37:00;;;;;;;444.63;251.68;;;;;;;13.58;47.59;101630.84;682834;28;46287;-69
2022/05/02 01:37:21;;;;;;;443.98;250.25;;;;;;;13.58;47.57;101628.97;683428;28;22180;-69
2022/05/02 01:37:43;;;;;;;443.75;249.63;;;;;;;13.56;47.45;101628.31;683880;28;22149;-69
2022/05/02 01:38:05;;;;;;;445.92;258.70;;;;;;;13.55;47.76;101623.88;682690;28;46295;-69
2022/05/02 01:38:26;;;;;;;446.50;254.80;;;;;;;13.54;47.91;101622.19;683493;28;23219;-69
2022/05/02 01:38:47;;;;;;;443.77;248.90;;;;;;;13.51;47.93;101627.97;679852;29;22044;-69
2022/05/02 01:39:09;;;;;;;443.63;246.95;;;;;;;13.49;47.80;101619.16;679318;29;44844;-70
2022/05/02 01:39:30;;;;;;;445.63;252.88;;;;;;;13.51;47.86;101628.81;679808;29;44383;-69
2022/05/02 01:39:51;;;;;;;447.98;256.85;;;;;;;13.47;47.68;101622.03;679826;29;23125;-69
2022/05/02 01:40:13;;;;;;;446.15;254.07;;;;;;;13.48;48.06;101623.75;681073;29;10416;-70